Forest City, Illinois
Current Conditions -  °F | °C
As of 9:54 PM on Thursday 18 Dec 2014 (Local Time) from KPIA Reporting Station
Clear Clear  
Wind Chill: 25°   Ceiling: Unl
Heat Index: 25°   Visibility: 10mi
Dew Point: 18°   Wind: 0mph
Humidity: 75%   Direction: NA
Pressure: 30.29"   Gusts: NA
Location:  40.37°N, 89.83°W
Report Text: KPIA 190354Z 00000KT 10SM CLR M04/M08 A3029 RMK AO2 SLP267 T10391078
Loading
Personal Weather Stations






























Interactive Weather Map New forecast layout! Learn more

10-Day Weather Forecast

Advertisements
Track Severe Weather on mobile